sensor_id;sensor_type;location;lat;lon;timestamp;P1;durP1;ratioP1;P2;durP2;ratioP2
74904;SDS011;63465;50.862;6.220;2023-08-06T00:00:46;1.47;;;1.47;;
74904;SDS011;63465;50.862;6.220;2023-08-06T00:03:12;1.30;;;1.23;;
74904;SDS011;63465;50.862;6.220;2023-08-06T00:05:40;2.10;;;1.30;;
74904;SDS011;63465;50.862;6.220;2023-08-06T00:08:06;2.03;;;1.40;;
74904;SDS011;63465;50.862;6.220;2023-08-06T00:10:32;1.60;;;1.50;;
74904;SDS011;63465;50.862;6.220;2023-08-06T00:12:57;1.50;;;1.40;;
74904;SDS011;63465;50.862;6.220;2023-08-06T00:15:22;1.23;;;1.23;;
74904;SDS011;63465;50.862;6.220;2023-08-06T00:17:48;1.53;;;1.10;;
74904;SDS011;63465;50.862;6.220;2023-08-06T00:20:13;1.47;;;1.37;;
74904;SDS011;63465;50.862;6.220;2023-08-06T00:22:38;1.17;;;1.00;;
74904;SDS011;63465;50.862;6.220;2023-08-06T00:25:04;1.60;;;1.50;;
74904;SDS011;63465;50.862;6.220;2023-08-06T00:27:30;5.13;;;1.10;;
74904;SDS011;63465;50.862;6.220;2023-08-06T00:29:55;1.70;;;1.20;;
74904;SDS011;63465;50.862;6.220;2023-08-06T00:32:21;0.90;;;0.90;;
74904;SDS011;63465;50.862;6.220;2023-08-06T00:34:46;1.10;;;1.10;;
74904;SDS011;63465;50.862;6.220;2023-08-06T00:37:14;1.10;;;1.00;;
74904;SDS011;63465;50.862;6.220;2023-08-06T00:39:39;1.30;;;1.30;;
74904;SDS011;63465;50.862;6.220;2023-08-06T00:42:04;1.57;;;1.47;;
74904;SDS011;63465;50.862;6.220;2023-08-06T00:44:30;2.10;;;1.00;;
74904;SDS011;63465;50.862;6.220;2023-08-06T00:46:55;3.03;;;1.50;;
74904;SDS011;63465;50.862;6.220;2023-08-06T00:49:20;2.80;;;1.10;;
74904;SDS011;63465;50.862;6.220;2023-08-06T00:51:46;2.73;;;1.57;;
74904;SDS011;63465;50.862;6.220;2023-08-06T00:54:12;2.00;;;1.30;;
74904;SDS011;63465;50.862;6.220;2023-08-06T00:56:37;1.60;;;1.30;;
74904;SDS011;63465;50.862;6.220;2023-08-06T00:59:06;3.70;;;1.10;;
74904;SDS011;63465;50.862;6.220;2023-08-06T01:01:32;2.50;;;1.33;;
74904;SDS011;63465;50.862;6.220;2023-08-06T01:03:57;2.23;;;1.10;;
74904;SDS011;63465;50.862;6.220;2023-08-06T01:06:31;1.40;;;1.30;;
74904;SDS011;63465;50.862;6.220;2023-08-06T01:12:05;5.53;;;1.77;;
74904;SDS011;63465;50.862;6.220;2023-08-06T01:14:39;1.43;;;1.33;;
74904;SDS011;63465;50.862;6.220;2023-08-06T01:17:30;1.20;;;1.20;;
74904;SDS011;63465;50.862;6.220;2023-08-06T01:19:55;2.30;;;1.30;;
74904;SDS011;63465;50.862;6.220;2023-08-06T01:22:21;1.30;;;0.90;;
74904;SDS011;63465;50.862;6.220;2023-08-06T01:24:48;3.23;;;1.20;;
74904;SDS011;63465;50.862;6.220;2023-08-06T01:27:17;2.57;;;1.43;;
74904;SDS011;63465;50.862;6.220;2023-08-06T01:29:49;9.53;;;1.70;;
74904;SDS011;63465;50.862;6.220;2023-08-06T01:32:24;2.00;;;1.20;;
74904;SDS011;63465;50.862;6.220;2023-08-06T01:34:51;2.20;;;1.10;;
74904;SDS011;63465;50.862;6.220;2023-08-06T01:37:19;1.37;;;1.27;;
74904;SDS011;63465;50.862;6.220;2023-08-06T01:39:45;4.20;;;1.50;;
74904;SDS011;63465;50.862;6.220;2023-08-06T01:42:10;1.73;;;1.40;;
74904;SDS011;63465;50.862;6.220;2023-08-06T01:44:35;1.20;;;1.20;;
74904;SDS011;63465;50.862;6.220;2023-08-06T01:47:01;4.23;;;1.50;;
74904;SDS011;63465;50.862;6.220;2023-08-06T01:49:26;3.13;;;1.20;;
74904;SDS011;63465;50.862;6.220;2023-08-06T01:51:51;1.40;;;1.30;;
74904;SDS011;63465;50.862;6.220;2023-08-06T01:54:17;2.57;;;1.20;;
74904;SDS011;63465;50.862;6.220;2023-08-06T01:56:42;1.63;;;1.13;;
74904;SDS011;63465;50.862;6.220;2023-08-06T01:59:07;1.30;;;1.30;;
74904;SDS011;63465;50.862;6.220;2023-08-06T02:01:32;1.80;;;1.07;;
74904;SDS011;63465;50.862;6.220;2023-08-06T02:03:58;1.83;;;1.60;;
74904;SDS011;63465;50.862;6.220;2023-08-06T02:06:23;2.00;;;1.20;;
74904;SDS011;63465;50.862;6.220;2023-08-06T02:08:48;1.30;;;1.17;;
74904;SDS011;63465;50.862;6.220;2023-08-06T02:11:13;3.03;;;2.50;;
74904;SDS011;63465;50.862;6.220;2023-08-06T02:13:39;2.03;;;1.50;;
74904;SDS011;63465;50.862;6.220;2023-08-06T02:16:06;1.47;;;1.30;;
74904;SDS011;63465;50.862;6.220;2023-08-06T02:18:33;1.73;;;1.20;;
74904;SDS011;63465;50.862;6.220;2023-08-06T02:20:58;1.10;;;1.00;;
74904;SDS011;63465;50.862;6.220;2023-08-06T02:23:24;2.97;;;1.40;;
74904;SDS011;63465;50.862;6.220;2023-08-06T02:26:00;4.77;;;1.10;;
74904;SDS011;63465;50.862;6.220;2023-08-06T02:28:29;1.60;;;1.30;;
74904;SDS011;63465;50.862;6.220;2023-08-06T02:30:55;1.70;;;1.60;;
74904;SDS011;63465;50.862;6.220;2023-08-06T02:33:20;2.63;;;1.33;;
74904;SDS011;63465;50.862;6.220;2023-08-06T02:35:46;1.87;;;1.30;;
74904;SDS011;63465;50.862;6.220;2023-08-06T02:38:11;1.30;;;1.17;;
74904;SDS011;63465;50.862;6.220;2023-08-06T02:40:36;2.23;;;1.10;;
74904;SDS011;63465;50.862;6.220;2023-08-06T02:43:07;3.30;;;1.97;;
74904;SDS011;63465;50.862;6.220;2023-08-06T02:45:32;1.57;;;1.47;;
74904;SDS011;63465;50.862;6.220;2023-08-06T02:47:57;1.10;;;1.00;;
74904;SDS011;63465;50.862;6.220;2023-08-06T02:50:23;1.00;;;0.90;;
74904;SDS011;63465;50.862;6.220;2023-08-06T02:52:49;1.20;;;1.17;;
74904;SDS011;63465;50.862;6.220;2023-08-06T02:55:14;1.47;;;0.90;;
74904;SDS011;63465;50.862;6.220;2023-08-06T02:57:39;1.10;;;1.10;;
74904;SDS011;63465;50.862;6.220;2023-08-06T03:00:05;2.10;;;1.10;;
74904;SDS011;63465;50.862;6.220;2023-08-06T03:02:31;1.27;;;1.10;;
74904;SDS011;63465;50.862;6.220;2023-08-06T03:04:56;2.53;;;1.10;;
74904;SDS011;63465;50.862;6.220;2023-08-06T03:07:21;1.57;;;1.33;;
74904;SDS011;63465;50.862;6.220;2023-08-06T03:09:47;4.77;;;1.37;;
74904;SDS011;63465;50.862;6.220;2023-08-06T03:12:13;1.00;;;1.00;;
74904;SDS011;63465;50.862;6.220;2023-08-06T03:14:38;2.10;;;0.93;;
74904;SDS011;63465;50.862;6.220;2023-08-06T03:17:03;4.50;;;1.40;;
74904;SDS011;63465;50.862;6.220;2023-08-06T03:19:29;1.20;;;1.07;;
74904;SDS011;63465;50.862;6.220;2023-08-06T03:21:54;12.30;;;1.30;;
74904;SDS011;63465;50.862;6.220;2023-08-06T03:24:19;2.53;;;1.50;;
74904;SDS011;63465;50.862;6.220;2023-08-06T03:26:45;1.27;;;1.17;;
74904;SDS011;63465;50.862;6.220;2023-08-06T03:29:10;2.37;;;1.30;;
74904;SDS011;63465;50.862;6.220;2023-08-06T03:31:35;1.23;;;1.17;;
74904;SDS011;63465;50.862;6.220;2023-08-06T03:34:00;2.87;;;1.40;;
74904;SDS011;63465;50.862;6.220;2023-08-06T03:36:26;2.63;;;1.40;;
74904;SDS011;63465;50.862;6.220;2023-08-06T03:38:51;1.30;;;1.20;;
74904;SDS011;63465;50.862;6.220;2023-08-06T03:41:16;4.50;;;1.20;;
74904;SDS011;63465;50.862;6.220;2023-08-06T03:43:42;2.17;;;1.17;;
74904;SDS011;63465;50.862;6.220;2023-08-06T03:46:07;1.37;;;1.37;;
74904;SDS011;63465;50.862;6.220;2023-08-06T03:48:32;1.30;;;1.30;;
74904;SDS011;63465;50.862;6.220;2023-08-06T03:50:57;1.53;;;1.10;;
74904;SDS011;63465;50.862;6.220;2023-08-06T03:53:25;1.90;;;1.40;;
74904;SDS011;63465;50.862;6.220;2023-08-06T03:55:51;3.27;;;1.10;;
74904;SDS011;63465;50.862;6.220;2023-08-06T03:58:16;1.37;;;1.20;;
74904;SDS011;63465;50.862;6.220;2023-08-06T04:00:41;4.10;;;1.20;;
74904;SDS011;63465;50.862;6.220;2023-08-06T04:03:06;2.60;;;1.10;;
74904;SDS011;63465;50.862;6.220;2023-08-06T04:05:32;1.70;;;1.10;;
74904;SDS011;63465;50.862;6.220;2023-08-06T04:07:58;4.43;;;1.30;;
74904;SDS011;63465;50.862;6.220;2023-08-06T04:10:24;4.33;;;1.40;;
74904;SDS011;63465;50.862;6.220;2023-08-06T04:12:50;1.10;;;1.00;;
74904;SDS011;63465;50.862;6.220;2023-08-06T04:15:15;2.73;;;1.10;;
74904;SDS011;63465;50.862;6.220;2023-08-06T04:17:40;3.70;;;1.17;;
74904;SDS011;63465;50.862;6.220;2023-08-06T04:20:06;2.70;;;1.03;;
74904;SDS011;63465;50.862;6.220;2023-08-06T04:22:31;4.43;;;1.30;;
74904;SDS011;63465;50.862;6.220;2023-08-06T04:24:57;2.80;;;1.00;;
74904;SDS011;63465;50.862;6.220;2023-08-06T04:27:22;13.93;;;1.20;;
74904;SDS011;63465;50.862;6.220;2023-08-06T04:29:47;1.10;;;1.10;;
74904;SDS011;63465;50.862;6.220;2023-08-06T04:32:13;0.90;;;0.90;;
74904;SDS011;63465;50.862;6.220;2023-08-06T04:34:38;1.00;;;1.00;;
74904;SDS011;63465;50.862;6.220;2023-08-06T04:37:03;2.63;;;0.90;;
74904;SDS011;63465;50.862;6.220;2023-08-06T04:39:29;1.00;;;1.00;;
74904;SDS011;63465;50.862;6.220;2023-08-06T04:41:55;0.80;;;0.80;;
74904;SDS011;63465;50.862;6.220;2023-08-06T04:44:21;3.70;;;1.10;;
74904;SDS011;63465;50.862;6.220;2023-08-06T04:46:47;0.90;;;0.90;;
74904;SDS011;63465;50.862;6.220;2023-08-06T04:49:12;0.70;;;0.70;;
74904;SDS011;63465;50.862;6.220;2023-08-06T04:51:37;0.90;;;0.80;;
74904;SDS011;63465;50.862;6.220;2023-08-06T04:54:03;1.20;;;1.00;;
74904;SDS011;63465;50.862;6.220;2023-08-06T04:56:28;2.60;;;1.20;;
74904;SDS011;63465;50.862;6.220;2023-08-06T04:58:54;2.60;;;1.30;;
74904;SDS011;63465;50.862;6.220;2023-08-06T05:01:19;1.63;;;1.53;;
74904;SDS011;63465;50.862;6.220;2023-08-06T05:03:44;3.13;;;1.63;;
74904;SDS011;63465;50.862;6.220;2023-08-06T05:06:11;2.93;;;2.07;;
74904;SDS011;63465;50.862;6.220;2023-08-06T05:08:36;1.63;;;1.63;;
74904;SDS011;63465;50.862;6.220;2023-08-06T05:11:02;2.50;;;2.30;;
74904;SDS011;63465;50.862;6.220;2023-08-06T05:13:27;2.30;;;2.20;;
74904;SDS011;63465;50.862;6.220;2023-08-06T05:15:53;4.27;;;2.80;;
74904;SDS011;63465;50.862;6.220;2023-08-06T05:18:19;4.00;;;2.30;;
74904;SDS011;63465;50.862;6.220;2023-08-06T05:20:44;2.43;;;2.30;;
74904;SDS011;63465;50.862;6.220;2023-08-06T05:23:09;2.60;;;2.50;;
74904;SDS011;63465;50.862;6.220;2023-08-06T05:25:35;2.30;;;2.10;;
74904;SDS011;63465;50.862;6.220;2023-08-06T05:28:01;2.70;;;2.30;;
74904;SDS011;63465;50.862;6.220;2023-08-06T05:30:26;4.00;;;2.40;;
74904;SDS011;63465;50.862;6.220;2023-08-06T05:32:52;2.60;;;2.00;;
74904;SDS011;63465;50.862;6.220;2023-08-06T05:35:17;3.90;;;2.37;;
74904;SDS011;63465;50.862;6.220;2023-08-06T05:37:43;4.40;;;2.13;;
74904;SDS011;63465;50.862;6.220;2023-08-06T05:40:08;2.17;;;2.07;;
74904;SDS011;63465;50.862;6.220;2023-08-06T05:42:34;2.33;;;2.13;;
74904;SDS011;63465;50.862;6.220;2023-08-06T05:44:59;2.50;;;2.10;;
74904;SDS011;63465;50.862;6.220;2023-08-06T05:47:24;2.40;;;2.30;;
74904;SDS011;63465;50.862;6.220;2023-08-06T05:49:49;2.00;;;1.90;;
74904;SDS011;63465;50.862;6.220;2023-08-06T05:52:15;3.03;;;2.63;;
74904;SDS011;63465;50.862;6.220;2023-08-06T05:54:40;3.07;;;2.87;;
74904;SDS011;63465;50.862;6.220;2023-08-06T05:57:05;5.13;;;3.33;;
74904;SDS011;63465;50.862;6.220;2023-08-06T05:59:31;5.80;;;3.10;;
74904;SDS011;63465;50.862;6.220;2023-08-06T06:01:56;4.10;;;3.73;;
74904;SDS011;63465;50.862;6.220;2023-08-06T06:04:22;3.40;;;3.10;;
74904;SDS011;63465;50.862;6.220;2023-08-06T06:06:47;7.03;;;3.93;;
74904;SDS011;63465;50.862;6.220;2023-08-06T06:09:12;5.13;;;4.37;;
74904;SDS011;63465;50.862;6.220;2023-08-06T06:11:38;4.00;;;3.60;;
74904;SDS011;63465;50.862;6.220;2023-08-06T06:14:03;4.07;;;3.77;;
74904;SDS011;63465;50.862;6.220;2023-08-06T06:16:28;9.20;;;4.30;;
74904;SDS011;63465;50.862;6.220;2023-08-06T06:18:53;6.47;;;4.70;;
74904;SDS011;63465;50.862;6.220;2023-08-06T06:21:19;9.53;;;4.60;;
74904;SDS011;63465;50.862;6.220;2023-08-06T06:23:45;7.70;;;5.30;;
74904;SDS011;63465;50.862;6.220;2023-08-06T06:26:10;5.30;;;4.80;;
74904;SDS011;63465;50.862;6.220;2023-08-06T06:28:35;7.20;;;4.70;;
74904;SDS011;63465;50.862;6.220;2023-08-06T06:31:01;6.17;;;5.43;;
74904;SDS011;63465;50.862;6.220;2023-08-06T06:33:27;8.53;;;5.40;;
74904;SDS011;63465;50.862;6.220;2023-08-06T06:35:52;5.90;;;4.97;;
74904;SDS011;63465;50.862;6.220;2023-08-06T06:38:18;7.27;;;5.37;;
74904;SDS011;63465;50.862;6.220;2023-08-06T06:40:43;7.97;;;6.17;;
74904;SDS011;63465;50.862;6.220;2023-08-06T06:43:08;6.73;;;5.20;;
74904;SDS011;63465;50.862;6.220;2023-08-06T06:45:33;11.73;;;5.73;;
74904;SDS011;63465;50.862;6.220;2023-08-06T06:47:59;7.63;;;4.97;;
74904;SDS011;63465;50.862;6.220;2023-08-06T06:50:24;6.60;;;4.80;;
74904;SDS011;63465;50.862;6.220;2023-08-06T06:52:51;7.10;;;4.70;;
74904;SDS011;63465;50.862;6.220;2023-08-06T06:55:16;13.50;;;5.80;;
74904;SDS011;63465;50.862;6.220;2023-08-06T06:57:41;6.63;;;5.10;;
74904;SDS011;63465;50.862;6.220;2023-08-06T07:00:07;5.63;;;4.27;;
74904;SDS011;63465;50.862;6.220;2023-08-06T07:02:33;6.53;;;4.57;;
74904;SDS011;63465;50.862;6.220;2023-08-06T07:04:58;6.53;;;4.70;;
74904;SDS011;63465;50.862;6.220;2023-08-06T07:07:23;6.60;;;3.80;;
74904;SDS011;63465;50.862;6.220;2023-08-06T07:09:48;4.10;;;3.80;;
74904;SDS011;63465;50.862;6.220;2023-08-06T07:12:14;3.40;;;3.10;;
74904;SDS011;63465;50.862;6.220;2023-08-06T07:14:39;4.70;;;3.60;;
74904;SDS011;63465;50.862;6.220;2023-08-06T07:17:04;3.50;;;3.20;;
74904;SDS011;63465;50.862;6.220;2023-08-06T07:19:30;4.77;;;3.80;;
74904;SDS011;63465;50.862;6.220;2023-08-06T07:21:55;3.27;;;3.00;;
74904;SDS011;63465;50.862;6.220;2023-08-06T07:24:21;2.20;;;2.10;;
74904;SDS011;63465;50.862;6.220;2023-08-06T07:26:46;5.10;;;2.20;;
74904;SDS011;63465;50.862;6.220;2023-08-06T07:29:12;2.20;;;2.10;;
74904;SDS011;63465;50.862;6.220;2023-08-06T07:31:37;2.20;;;1.57;;
74904;SDS011;63465;50.862;6.220;2023-08-06T07:34:02;1.30;;;1.20;;
74904;SDS011;63465;50.862;6.220;2023-08-06T07:36:28;0.90;;;0.90;;
74904;SDS011;63465;50.862;6.220;2023-08-06T07:38:53;1.00;;;0.80;;
74904;SDS011;63465;50.862;6.220;2023-08-06T07:41:24;0.83;;;0.83;;
74904;SDS011;63465;50.862;6.220;2023-08-06T07:43:50;1.33;;;0.70;;
74904;SDS011;63465;50.862;6.220;2023-08-06T07:46:15;1.07;;;0.97;;
74904;SDS011;63465;50.862;6.220;2023-08-06T07:48:40;1.77;;;1.00;;
74904;SDS011;63465;50.862;6.220;2023-08-06T07:51:06;1.00;;;1.00;;
74904;SDS011;63465;50.862;6.220;2023-08-06T07:53:31;1.40;;;1.30;;
74904;SDS011;63465;50.862;6.220;2023-08-06T07:55:56;5.60;;;4.50;;
74904;SDS011;63465;50.862;6.220;2023-08-06T07:58:23;1.70;;;1.37;;
74904;SDS011;63465;50.862;6.220;2023-08-06T08:00:49;2.33;;;2.13;;
74904;SDS011;63465;50.862;6.220;2023-08-06T08:03:15;3.10;;;2.13;;
74904;SDS011;63465;50.862;6.220;2023-08-06T08:05:41;2.17;;;2.07;;
74904;SDS011;63465;50.862;6.220;2023-08-06T08:08:07;2.40;;;2.20;;
74904;SDS011;63465;50.862;6.220;2023-08-06T08:10:33;2.47;;;2.27;;
74904;SDS011;63465;50.862;6.220;2023-08-06T08:12:59;7.20;;;2.20;;
74904;SDS011;63465;50.862;6.220;2023-08-06T08:15:25;3.70;;;2.07;;
74904;SDS011;63465;50.862;6.220;2023-08-06T08:17:51;2.43;;;1.77;;
74904;SDS011;63465;50.862;6.220;2023-08-06T08:20:17;1.20;;;1.20;;
74904;SDS011;63465;50.862;6.220;2023-08-06T08:22:42;4.10;;;1.37;;
74904;SDS011;63465;50.862;6.220;2023-08-06T08:25:08;6.57;;;1.30;;
74904;SDS011;63465;50.862;6.220;2023-08-06T08:27:33;1.00;;;1.00;;
74904;SDS011;63465;50.862;6.220;2023-08-06T08:29:58;0.67;;;0.67;;
74904;SDS011;63465;50.862;6.220;2023-08-06T08:32:24;0.80;;;0.80;;
74904;SDS011;63465;50.862;6.220;2023-08-06T08:34:49;5.03;;;0.80;;
74904;SDS011;63465;50.862;6.220;2023-08-06T08:37:14;0.70;;;0.70;;
74904;SDS011;63465;50.862;6.220;2023-08-06T08:39:39;0.67;;;0.67;;
74904;SDS011;63465;50.862;6.220;2023-08-06T08:42:05;2.20;;;1.40;;
74904;SDS011;63465;50.862;6.220;2023-08-06T08:44:32;0.90;;;0.90;;
74904;SDS011;63465;50.862;6.220;2023-08-06T08:46:58;0.80;;;0.80;;
74904;SDS011;63465;50.862;6.220;2023-08-06T08:49:24;1.00;;;0.90;;
74904;SDS011;63465;50.862;6.220;2023-08-06T08:51:52;0.97;;;0.97;;
74904;SDS011;63465;50.862;6.220;2023-08-06T08:54:20;1.17;;;1.10;;
74904;SDS011;63465;50.862;6.220;2023-08-06T08:56:48;1.47;;;1.37;;
74904;SDS011;63465;50.862;6.220;2023-08-06T08:59:13;1.80;;;1.70;;
74904;SDS011;63465;50.862;6.220;2023-08-06T09:01:38;1.63;;;1.60;;
74904;SDS011;63465;50.862;6.220;2023-08-06T09:04:07;2.40;;;2.20;;
74904;SDS011;63465;50.862;6.220;2023-08-06T09:06:34;2.80;;;2.60;;
74904;SDS011;63465;50.862;6.220;2023-08-06T09:09:06;4.33;;;3.93;;
74904;SDS011;63465;50.862;6.220;2023-08-06T09:11:35;3.83;;;3.53;;
74904;SDS011;63465;50.862;6.220;2023-08-06T09:14:09;8.13;;;3.00;;
74904;SDS011;63465;50.862;6.220;2023-08-06T09:16:35;6.50;;;4.70;;
74904;SDS011;63465;50.862;6.220;2023-08-06T09:19:10;3.80;;;3.50;;
74904;SDS011;63465;50.862;6.220;2023-08-06T09:21:43;5.47;;;3.80;;
74904;SDS011;63465;50.862;6.220;2023-08-06T09:24:09;5.20;;;3.50;;
74904;SDS011;63465;50.862;6.220;2023-08-06T09:26:36;2.87;;;2.67;;
74904;SDS011;63465;50.862;6.220;2023-08-06T09:29:05;6.60;;;3.10;;
74904;SDS011;63465;50.862;6.220;2023-08-06T09:31:32;3.57;;;3.07;;
74904;SDS011;63465;50.862;6.220;2023-08-06T09:33:59;3.20;;;2.83;;
74904;SDS011;63465;50.862;6.220;2023-08-06T09:36:26;2.90;;;2.70;;
74904;SDS011;63465;50.862;6.220;2023-08-06T09:38:52;6.67;;;3.63;;
74904;SDS011;63465;50.862;6.220;2023-08-06T09:41:26;6.23;;;3.00;;
74904;SDS011;63465;50.862;6.220;2023-08-06T09:43:54;2.27;;;2.17;;
74904;SDS011;63465;50.862;6.220;2023-08-06T09:46:20;5.33;;;2.70;;
74904;SDS011;63465;50.862;6.220;2023-08-06T09:48:47;2.50;;;2.23;;
74904;SDS011;63465;50.862;6.220;2023-08-06T09:51:13;3.80;;;1.70;;
74904;SDS011;63465;50.862;6.220;2023-08-06T09:53:39;5.60;;;2.00;;
74904;SDS011;63465;50.862;6.220;2023-08-06T09:56:06;3.90;;;1.77;;
74904;SDS011;63465;50.862;6.220;2023-08-06T09:58:31;2.03;;;1.90;;
74904;SDS011;63465;50.862;6.220;2023-08-06T10:00:58;2.43;;;2.23;;
74904;SDS011;63465;50.862;6.220;2023-08-06T10:03:25;3.73;;;1.80;;
74904;SDS011;63465;50.862;6.220;2023-08-06T10:05:52;3.53;;;2.07;;
74904;SDS011;63465;50.862;6.220;2023-08-06T10:08:20;1.53;;;1.40;;
74904;SDS011;63465;50.862;6.220;2023-08-06T10:10:45;2.37;;;1.80;;
74904;SDS011;63465;50.862;6.220;2023-08-06T10:13:10;4.80;;;3.17;;
74904;SDS011;63465;50.862;6.220;2023-08-06T10:15:38;3.40;;;2.17;;
74904;SDS011;63465;50.862;6.220;2023-08-06T10:18:04;2.70;;;1.40;;
74904;SDS011;63465;50.862;6.220;2023-08-06T10:20:34;3.90;;;2.20;;
74904;SDS011;63465;50.862;6.220;2023-08-06T10:23:00;3.73;;;2.90;;
74904;SDS011;63465;50.862;6.220;2023-08-06T10:25:28;4.33;;;2.63;;
74904;SDS011;63465;50.862;6.220;2023-08-06T10:27:55;3.10;;;2.20;;
74904;SDS011;63465;50.862;6.220;2023-08-06T10:32:50;2.60;;;2.03;;
74904;SDS011;63465;50.862;6.220;2023-08-06T10:45:57;3.97;;;2.23;;
74904;SDS011;63465;50.862;6.220;2023-08-06T10:48:43;2.17;;;2.03;;
74904;SDS011;63465;50.862;6.220;2023-08-06T10:51:11;4.23;;;2.37;;
74904;SDS011;63465;50.862;6.220;2023-08-06T10:53:38;4.10;;;2.10;;
74904;SDS011;63465;50.862;6.220;2023-08-06T10:56:13;3.40;;;2.47;;
74904;SDS011;63465;50.862;6.220;2023-08-06T10:58:40;7.10;;;2.67;;
74904;SDS011;63465;50.862;6.220;2023-08-06T11:01:05;2.67;;;1.80;;
74904;SDS011;63465;50.862;6.220;2023-08-06T11:03:31;3.00;;;2.20;;
74904;SDS011;63465;50.862;6.220;2023-08-06T11:05:58;2.20;;;1.73;;
74904;SDS011;63465;50.862;6.220;2023-08-06T11:08:26;2.80;;;2.03;;
74904;SDS011;63465;50.862;6.220;2023-08-06T11:10:53;5.07;;;2.10;;
74904;SDS011;63465;50.862;6.220;2023-08-06T11:13:20;5.00;;;2.17;;
74904;SDS011;63465;50.862;6.220;2023-08-06T11:15:46;4.53;;;2.90;;
74904;SDS011;63465;50.862;6.220;2023-08-06T11:18:11;4.23;;;2.30;;
74904;SDS011;63465;50.862;6.220;2023-08-06T11:20:36;2.20;;;1.77;;
74904;SDS011;63465;50.862;6.220;2023-08-06T11:23:02;2.17;;;1.87;;
74904;SDS011;63465;50.862;6.220;2023-08-06T11:25:28;2.80;;;1.33;;
74904;SDS011;63465;50.862;6.220;2023-08-06T11:27:54;2.17;;;1.57;;
74904;SDS011;63465;50.862;6.220;2023-08-06T11:30:19;3.10;;;1.80;;
74904;SDS011;63465;50.862;6.220;2023-08-06T11:32:45;3.23;;;1.40;;
74904;SDS011;63465;50.862;6.220;2023-08-06T11:35:12;2.77;;;1.50;;
74904;SDS011;63465;50.862;6.220;2023-08-06T11:37:38;1.33;;;1.33;;
74904;SDS011;63465;50.862;6.220;2023-08-06T11:40:07;1.73;;;1.60;;
74904;SDS011;63465;50.862;6.220;2023-08-06T11:42:33;1.27;;;1.20;;
74904;SDS011;63465;50.862;6.220;2023-08-06T11:45:00;1.73;;;1.43;;
74904;SDS011;63465;50.862;6.220;2023-08-06T11:47:27;1.20;;;1.20;;
74904;SDS011;63465;50.862;6.220;2023-08-06T11:49:53;1.47;;;1.37;;
74904;SDS011;63465;50.862;6.220;2023-08-06T11:52:20;2.30;;;0.90;;
74904;SDS011;63465;50.862;6.220;2023-08-06T11:54:48;1.13;;;1.13;;
74904;SDS011;63465;50.862;6.220;2023-08-06T11:57:26;1.97;;;1.40;;
74904;SDS011;63465;50.862;6.220;2023-08-06T11:59:53;1.40;;;1.27;;
74904;SDS011;63465;50.862;6.220;2023-08-06T12:02:20;1.73;;;1.50;;
74904;SDS011;63465;50.862;6.220;2023-08-06T12:07:37;1.00;;;0.97;;
74904;SDS011;63465;50.862;6.220;2023-08-06T12:10:04;1.80;;;1.70;;
74904;SDS011;63465;50.862;6.220;2023-08-06T12:12:29;2.90;;;1.77;;
74904;SDS011;63465;50.862;6.220;2023-08-06T12:14:55;1.03;;;1.00;;
74904;SDS011;63465;50.862;6.220;2023-08-06T12:17:21;4.03;;;1.50;;
74904;SDS011;63465;50.862;6.220;2023-08-06T12:19:47;5.30;;;2.67;;
74904;SDS011;63465;50.862;6.220;2023-08-06T12:22:12;4.33;;;3.37;;
74904;SDS011;63465;50.862;6.220;2023-08-06T12:24:39;3.83;;;2.83;;
74904;SDS011;63465;50.862;6.220;2023-08-06T12:27:05;1.80;;;1.43;;
74904;SDS011;63465;50.862;6.220;2023-08-06T12:29:30;1.10;;;1.10;;
74904;SDS011;63465;50.862;6.220;2023-08-06T12:31:56;6.40;;;2.10;;
74904;SDS011;63465;50.862;6.220;2023-08-06T12:34:21;6.40;;;3.70;;
74904;SDS011;63465;50.862;6.220;2023-08-06T12:36:47;6.83;;;1.67;;
74904;SDS011;63465;50.862;6.220;2023-08-06T12:39:12;2.30;;;1.60;;
74904;SDS011;63465;50.862;6.220;2023-08-06T12:41:38;1.87;;;1.47;;
74904;SDS011;63465;50.862;6.220;2023-08-06T12:44:03;5.30;;;2.00;;
74904;SDS011;63465;50.862;6.220;2023-08-06T12:46:29;2.03;;;1.77;;
74904;SDS011;63465;50.862;6.220;2023-08-06T12:48:55;4.73;;;2.13;;
74904;SDS011;63465;50.862;6.220;2023-08-06T12:51:22;2.60;;;2.13;;
74904;SDS011;63465;50.862;6.220;2023-08-06T12:53:48;4.53;;;2.10;;
74904;SDS011;63465;50.862;6.220;2023-08-06T12:56:13;6.43;;;2.07;;
74904;SDS011;63465;50.862;6.220;2023-08-06T12:58:38;3.37;;;2.30;;
74904;SDS011;63465;50.862;6.220;2023-08-06T13:01:04;3.70;;;1.90;;
74904;SDS011;63465;50.862;6.220;2023-08-06T13:03:30;4.70;;;1.67;;
74904;SDS011;63465;50.862;6.220;2023-08-06T13:05:55;1.73;;;1.60;;
74904;SDS011;63465;50.862;6.220;2023-08-06T13:08:20;2.60;;;1.80;;
74904;SDS011;63465;50.862;6.220;2023-08-06T13:10:46;2.23;;;1.47;;
74904;SDS011;63465;50.862;6.220;2023-08-06T13:13:11;3.70;;;2.00;;
74904;SDS011;63465;50.862;6.220;2023-08-06T13:15:36;1.90;;;1.70;;
74904;SDS011;63465;50.862;6.220;2023-08-06T13:18:02;5.97;;;2.40;;
74904;SDS011;63465;50.862;6.220;2023-08-06T13:20:30;6.03;;;2.17;;
74904;SDS011;63465;50.862;6.220;2023-08-06T13:22:55;1.97;;;1.67;;
74904;SDS011;63465;50.862;6.220;2023-08-06T13:25:21;4.30;;;2.20;;
74904;SDS011;63465;50.862;6.220;2023-08-06T13:27:46;5.23;;;1.93;;
74904;SDS011;63465;50.862;6.220;2023-08-06T13:30:12;4.13;;;1.70;;
74904;SDS011;63465;50.862;6.220;2023-08-06T13:32:38;5.70;;;1.50;;
74904;SDS011;63465;50.862;6.220;2023-08-06T13:35:04;4.90;;;2.23;;
74904;SDS011;63465;50.862;6.220;2023-08-06T13:37:30;2.30;;;1.90;;
74904;SDS011;63465;50.862;6.220;2023-08-06T13:39:55;1.40;;;1.30;;
74904;SDS011;63465;50.862;6.220;2023-08-06T13:42:20;3.90;;;1.47;;
74904;SDS011;63465;50.862;6.220;2023-08-06T13:44:46;2.07;;;1.50;;
74904;SDS011;63465;50.862;6.220;2023-08-06T13:47:11;2.83;;;1.77;;
74904;SDS011;63465;50.862;6.220;2023-08-06T13:49:36;1.43;;;1.00;;
74904;SDS011;63465;50.862;6.220;2023-08-06T13:52:02;1.23;;;1.13;;
74904;SDS011;63465;50.862;6.220;2023-08-06T13:54:27;5.07;;;1.30;;
74904;SDS011;63465;50.862;6.220;2023-08-06T13:56:52;3.90;;;1.57;;
74904;SDS011;63465;50.862;6.220;2023-08-06T13:59:18;1.40;;;1.30;;
74904;SDS011;63465;50.862;6.220;2023-08-06T14:01:44;1.37;;;1.00;;
74904;SDS011;63465;50.862;6.220;2023-08-06T14:04:10;2.83;;;2.10;;
74904;SDS011;63465;50.862;6.220;2023-08-06T14:06:35;3.47;;;2.40;;
74904;SDS011;63465;50.862;6.220;2023-08-06T14:09:00;1.93;;;1.03;;
74904;SDS011;63465;50.862;6.220;2023-08-06T14:11:26;1.43;;;1.20;;
74904;SDS011;63465;50.862;6.220;2023-08-06T14:13:51;1.10;;;1.00;;
74904;SDS011;63465;50.862;6.220;2023-08-06T14:16:17;1.20;;;1.13;;
74904;SDS011;63465;50.862;6.220;2023-08-06T14:18:42;1.00;;;0.90;;
74904;SDS011;63465;50.862;6.220;2023-08-06T14:21:07;5.17;;;1.43;;
74904;SDS011;63465;50.862;6.220;2023-08-06T14:23:33;1.30;;;1.30;;
74904;SDS011;63465;50.862;6.220;2023-08-06T14:25:58;1.20;;;1.20;;
74904;SDS011;63465;50.862;6.220;2023-08-06T14:28:24;1.20;;;1.10;;
74904;SDS011;63465;50.862;6.220;2023-08-06T14:30:49;1.40;;;1.30;;
74904;SDS011;63465;50.862;6.220;2023-08-06T14:33:14;1.83;;;1.23;;
74904;SDS011;63465;50.862;6.220;2023-08-06T14:35:40;2.30;;;1.13;;
74904;SDS011;63465;50.862;6.220;2023-08-06T14:38:05;1.30;;;1.20;;
74904;SDS011;63465;50.862;6.220;2023-08-06T14:40:30;1.20;;;1.20;;
74904;SDS011;63465;50.862;6.220;2023-08-06T14:43:00;2.00;;;1.73;;
74904;SDS011;63465;50.862;6.220;2023-08-06T14:45:27;1.40;;;1.30;;
74904;SDS011;63465;50.862;6.220;2023-08-06T14:47:52;1.43;;;1.33;;
74904;SDS011;63465;50.862;6.220;2023-08-06T14:50:18;1.63;;;1.53;;
74904;SDS011;63465;50.862;6.220;2023-08-06T14:52:43;1.50;;;1.40;;
74904;SDS011;63465;50.862;6.220;2023-08-06T14:55:08;3.57;;;1.90;;
74904;SDS011;63465;50.862;6.220;2023-08-06T14:57:34;1.20;;;1.20;;
74904;SDS011;63465;50.862;6.220;2023-08-06T14:59:59;1.90;;;1.53;;